Terminal Aerodrome Forecast
Issued by NWS

Current Version | Previous Version | Graphics & Text | Print | Product List | Glossary On
Versions: 1 2 3 4 5 6 7 8 9 10 11 12 13 14 15 16 17 18 19
152
FTUS41 KPBZ 170857 AAA
TAFHLG
TAF AMD
KHLG 170857Z 1709/1806 25010G20KT P6SM BKN015
     FM171400 26013G26KT P6SM VCSH BKN025
     FM171900 28012KT P6SM BKN035
     FM172300 26006KT P6SM SCT040=

USA.gov is the U.S. government's official web portal to all federal, state and local government web resources and services.